Time;durP1;ratioP1;P1;durP2;ratioP2;P2;SDS_P1;SDS_P2;PMS_P1;PMS_P2;Temp;Humidity;BMP_temperature;BMP_pressure;BME280_temperature;BME280_humidity;BME280_pressure;Samples;Min_cycle;Max_cycle;Signal;HPM_P1;HPM_P2
2022/03/17 00:00:07;;;;;;;46.80;42.90;;;;;;;3.80;79.65;102637.50;4972126;28;20479;-49
2022/03/17 00:02:35;;;;;;;49.17;44.27;;;;;;;3.83;80.67;102626.75;4972747;28;20439;-48
2022/03/17 00:05:03;;;;;;;48.30;44.10;;;;;;;3.82;80.38;102620.63;4972634;28;20917;-48
2022/03/17 00:07:33;;;;;;;48.93;44.40;;;;;;;3.83;80.32;102619.69;4972605;28;20988;-44
2022/03/17 00:10:00;;;;;;;48.43;43.80;;;;;;;3.85;79.99;102609.03;4971843;28;21012;-48
2022/03/17 00:12:28;;;;;;;50.30;45.70;;;;;;;3.86;80.49;102616.81;4972471;28;20534;-49
2022/03/17 00:14:56;;;;;;;49.67;45.00;;;;;;;3.87;80.78;102600.06;4972436;28;20533;-47
2022/03/17 00:17:23;;;;;;;50.00;45.63;;;;;;;3.87;80.71;102600.06;4972535;28;20545;-46
2022/03/17 00:19:51;;;;;;;49.27;45.17;;;;;;;3.88;80.98;102601.72;4971810;28;20576;-46
2022/03/17 00:22:19;;;;;;;48.97;44.10;;;;;;;3.91;82.18;102601.50;4972307;28;20442;-48
2022/03/17 00:24:48;;;;;;;48.77;44.70;;;;;;;3.92;82.65;102605.00;4972240;28;20967;-47
2022/03/17 00:27:16;;;;;;;48.67;44.40;;;;;;;3.91;82.93;102614.69;4972344;28;20481;-48
2022/03/17 00:29:43;;;;;;;49.10;44.27;;;;;;;3.96;83.24;102614.38;4971885;28;20498;-49
2022/03/17 00:32:11;;;;;;;49.20;44.30;;;;;;;3.98;84.15;102636.22;4972128;28;20439;-48
2022/03/17 00:35:35;;;;;;;50.60;45.57;;;;;;;4.00;84.19;102636.13;4972443;28;20439;-48
2022/03/17 00:37:27;;;;;;;51.33;46.43;;;;;;;4.00;84.77;102615.03;4972128;28;20525;-46
2022/03/17 00:39:56;;;;;;;52.87;47.43;;;;;;;4.02;85.01;102621.03;4971394;28;20559;-49
2022/03/17 00:42:23;;;;;;;50.53;46.13;;;;;;;4.04;85.83;102609.41;4972005;28;20878;-46
2022/03/17 00:44:51;;;;;;;50.50;45.93;;;;;;;4.03;86.83;102601.59;4964626;28;20450;-49
2022/03/17 00:47:19;;;;;;;51.03;46.33;;;;;;;4.04;86.97;102595.34;4953017;28;20472;-47
2022/03/17 00:49:46;;;;;;;51.43;46.10;;;;;;;4.04;87.53;102593.56;4951993;28;20475;-45
2022/03/17 00:52:15;;;;;;;52.07;47.27;;;;;;;4.06;88.00;102589.00;4952712;29;20486;-47
2022/03/17 00:54:43;;;;;;;49.33;45.10;;;;;;;4.07;89.40;102579.28;4952838;28;20451;-49
2022/03/17 00:57:12;;;;;;;51.33;46.40;;;;;;;4.09;89.64;102588.78;4952696;28;20527;-50
2022/03/17 00:59:41;;;;;;;50.40;45.70;;;;;;;4.11;90.87;102591.34;4957214;28;20471;-49
2022/03/17 01:02:09;;;;;;;50.43;45.93;;;;;;;4.12;92.13;102574.53;4971533;28;20435;-48
2022/03/17 01:04:37;;;;;;;49.33;44.77;;;;;;;4.11;92.21;102576.34;4971930;28;20852;-50
2022/03/17 01:07:05;;;;;;;50.57;46.07;;;;;;;4.15;92.66;102574.31;4971857;28;20565;-47
2022/03/17 01:09:34;;;;;;;50.10;45.43;;;;;;;4.14;93.54;102567.34;4971352;28;21131;-46
2022/03/17 01:12:04;;;;;;;53.50;47.80;;;;;;;4.15;94.02;102559.31;4971635;28;20835;-50
2022/03/17 01:14:33;;;;;;;50.57;45.90;;;;;;;4.16;94.32;102562.78;4971652;28;20469;-45
2022/03/17 01:17:00;;;;;;;49.03;44.23;;;;;;;4.18;94.79;102560.91;4971532;28;20433;-49
2022/03/17 01:19:28;;;;;;;49.93;45.40;;;;;;;4.19;95.18;102558.13;4971124;28;20495;-46
2022/03/17 01:21:56;;;;;;;49.97;44.90;;;;;;;4.20;95.31;102546.63;4971228;28;20442;-47
2022/03/17 01:24:24;;;;;;;48.17;43.37;;;;;;;4.21;95.79;102539.56;4971276;28;20529;-46
2022/03/17 01:26:51;;;;;;;48.10;43.70;;;;;;;4.21;95.75;102535.09;4971193;28;20475;-46
2022/03/17 01:29:22;;;;;;;49.93;45.23;;;;;;;4.24;96.65;102528.78;4970968;28;21050;-46
2022/03/17 01:31:51;;;;;;;50.20;45.70;;;;;;;4.25;97.07;102527.78;4971105;28;20466;-47
2022/03/17 01:34:19;;;;;;;50.97;46.27;;;;;;;4.23;97.76;102535.00;4971451;28;20530;-46
2022/03/17 01:36:47;;;;;;;51.13;46.33;;;;;;;4.24;97.25;102518.22;4971262;28;20473;-46
2022/03/17 01:39:14;;;;;;;49.33;44.57;;;;;;;4.24;97.21;102512.94;4970854;28;20482;-48
2022/03/17 01:41:42;;;;;;;52.60;47.40;;;;;;;4.25;97.52;102507.53;4963681;28;20520;-49
2022/03/17 01:44:10;;;;;;;50.00;45.30;;;;;;;4.27;97.73;102508.25;4959931;28;20446;-47
2022/03/17 01:49:20;;;;;;;53.20;48.20;;;;;;;4.28;97.71;102503.81;4931981;28;20559;-50
2022/03/17 01:51:49;;;;;;;50.80;45.37;;;;;;;4.31;98.08;102508.84;4932661;29;20432;-48
2022/03/17 01:54:19;;;;;;;51.83;46.80;;;;;;;4.32;98.57;102516.69;4932492;29;20502;-48
2022/03/17 01:57:05;;;;;;;50.00;45.17;;;;;;;4.33;98.35;102513.06;4932569;29;20429;-50
2022/03/17 01:59:35;;;;;;;51.40;46.40;;;;;;;4.35;98.36;102502.41;4936399;28;20482;-48
2022/03/17 02:02:05;;;;;;;53.27;48.00;;;;;;;4.36;98.58;102502.28;4951665;29;20439;-50
2022/03/17 02:04:35;;;;;;;54.30;49.23;;;;;;;4.37;98.35;102495.19;4951607;29;20427;-46
2022/03/17 02:07:05;;;;;;;54.40;48.80;;;;;;;4.37;98.47;102498.69;4951641;29;20484;-47
2022/03/17 02:09:34;;;;;;;52.80;47.57;;;;;;;4.37;98.87;102482.84;4951351;28;20534;-46
2022/03/17 02:14:50;;;;;;;54.00;48.53;;;;;;;4.40;98.36;102477.34;4951570;28;20444;-51
2022/03/17 02:17:19;;;;;;;55.03;49.93;;;;;;;4.42;98.90;102467.47;4951280;28;20531;-49
2022/03/17 02:19:48;;;;;;;56.10;50.33;;;;;;;4.43;98.62;102460.41;4951067;28;20464;-46
2022/03/17 02:22:19;;;;;;;52.60;47.73;;;;;;;4.44;98.69;102451.53;4951147;29;20968;-47
2022/03/17 02:27:38;;;;;;;52.93;47.80;;;;;;;4.48;98.45;102443.25;4951097;28;20475;-48
2022/03/17 02:30:07;;;;;;;55.47;49.93;;;;;;;4.50;99.09;102444.94;4950867;28;20499;-50
2022/03/17 02:32:35;;;;;;;54.20;48.93;;;;;;;4.51;98.90;102444.81;4951289;29;20531;-49
2022/03/17 02:35:05;;;;;;;53.47;48.17;;;;;;;4.56;99.33;102455.06;4951311;29;20530;-46
2022/03/17 02:37:34;;;;;;;53.97;48.63;;;;;;;4.57;99.13;102444.34;4950233;29;20473;-49
2022/03/17 02:40:06;;;;;;;53.47;48.13;;;;;;;4.59;99.33;102431.03;4950620;28;20491;-44
2022/03/17 02:42:34;;;;;;;54.30;48.70;;;;;;;4.61;99.45;102416.75;4951155;28;20436;-46
2022/03/17 02:45:03;;;;;;;53.57;48.37;;;;;;;4.64;99.20;102434.16;4959908;28;20438;-46
2022/03/17 02:47:30;;;;;;;54.33;49.20;;;;;;;4.65;99.42;102436.69;4970385;28;20910;-49
2022/03/17 02:49:58;;;;;;;52.80;47.77;;;;;;;4.68;99.39;102428.53;4969849;28;20472;-46
2022/03/17 02:52:27;;;;;;;55.67;49.97;;;;;;;4.69;99.69;102413.53;4969977;28;20501;-46
2022/03/17 02:54:55;;;;;;;56.73;50.83;;;;;;;4.73;99.86;102415.81;4970297;28;20518;-49
2022/03/17 02:57:24;;;;;;;56.47;50.27;;;;;;;4.78;100.00;102410.19;4970194;28;20470;-50
2022/03/17 02:59:52;;;;;;;57.53;51.93;;;;;;;4.79;100.00;102404.75;4969640;28;20918;-48
2022/03/17 03:02:21;;;;;;;56.87;51.13;;;;;;;4.81;100.00;102405.47;4969838;28;20435;-46
2022/03/17 03:04:50;;;;;;;56.40;50.67;;;;;;;4.85;100.00;102400.78;4970293;28;20439;-47
2022/03/17 03:07:18;;;;;;;54.43;49.27;;;;;;;4.87;100.00;102406.78;4969400;28;20482;-49
2022/03/17 03:09:46;;;;;;;56.30;50.90;;;;;;;4.87;100.00;102399.72;4969476;28;20498;-49
2022/03/17 03:12:14;;;;;;;58.20;52.20;;;;;;;4.90;100.00;102406.56;4969913;28;20434;-47
2022/03/17 03:14:43;;;;;;;56.60;51.03;;;;;;;4.92;100.00;102394.09;4970061;28;20809;-46
2022/03/17 03:17:10;;;;;;;56.90;51.03;;;;;;;4.94;100.00;102394.78;4969948;28;20431;-48
2022/03/17 03:19:38;;;;;;;57.30;51.60;;;;;;;4.96;100.00;102392.88;4969395;28;20471;-46
2022/03/17 03:22:06;;;;;;;59.57;53.87;;;;;;;4.97;100.00;102392.75;4969858;28;20435;-49
2022/03/17 03:24:34;;;;;;;57.40;51.90;;;;;;;5.01;100.00;102407.44;4969827;28;21045;-49
2022/03/17 03:27:01;;;;;;;58.33;52.67;;;;;;;5.03;100.00;102402.00;4969877;28;20520;-46
2022/03/17 03:29:30;;;;;;;60.43;52.83;;;;;;;5.05;100.00;102401.91;4969515;28;20532;-46
2022/03/17 03:32:00;;;;;;;58.20;52.17;;;;;;;5.05;100.00;102394.78;4969456;28;20430;-48
2022/03/17 03:34:29;;;;;;;57.07;51.60;;;;;;;5.07;100.00;102403.47;4969612;28;20527;-46
2022/03/17 03:39:42;;;;;;;58.93;53.20;;;;;;;5.13;100.00;102388.91;4969363;28;20565;-48
2022/03/17 03:42:11;;;;;;;57.37;51.67;;;;;;;5.14;100.00;102386.13;4969482;28;20441;-47
2022/03/17 03:44:39;;;;;;;57.97;52.43;;;;;;;5.17;100.00;102382.44;4963584;28;20458;-47
2022/03/17 03:47:09;;;;;;;60.03;54.17;;;;;;;5.14;100.00;102366.81;4960571;28;20562;-45
2022/03/17 03:49:39;;;;;;;60.80;54.50;;;;;;;5.16;100.00;102364.88;4971947;28;20477;-48
2022/03/17 03:52:08;;;;;;;60.37;54.33;;;;;;;5.15;100.00;102352.59;4972701;28;20445;-46
2022/03/17 03:54:36;;;;;;;60.47;54.60;;;;;;;5.19;100.00;102348.75;4972721;28;20449;-46
2022/03/17 03:57:05;;;;;;;58.60;53.10;;;;;;;5.17;100.00;102335.63;4972887;28;20437;-50
2022/03/17 03:59:33;;;;;;;56.80;51.07;;;;;;;5.20;100.00;102327.47;4972069;28;20565;-47
2022/03/17 04:02:02;;;;;;;61.17;54.57;;;;;;;5.21;100.00;102341.53;4967071;28;20533;-49
2022/03/17 04:04:34;;;;;;;58.83;52.83;;;;;;;5.23;100.00;102319.28;4966550;28;20446;-50
2022/03/17 04:07:08;;;;;;;60.07;54.10;;;;;;;5.25;100.00;102321.81;4972802;28;20431;-45
2022/03/17 04:09:39;;;;;;;59.80;53.73;;;;;;;5.24;100.00;102322.78;4972233;28;20473;-48
2022/03/17 04:12:09;;;;;;;58.67;52.67;;;;;;;5.27;100.00;102317.22;4972562;28;20521;-50
2022/03/17 04:14:37;;;;;;;55.73;50.27;;;;;;;5.29;100.00;102320.59;4972602;28;20443;-47
2022/03/17 04:17:05;;;;;;;59.93;53.43;;;;;;;5.32;100.00;102318.53;4972638;28;20867;-51
2022/03/17 04:19:35;;;;;;;60.17;53.77;;;;;;;5.34;100.00;102321.06;4971897;28;20997;-50
2022/03/17 04:22:03;;;;;;;59.77;53.53;;;;;;;5.33;100.00;102301.72;4972192;28;20434;-51
2022/03/17 04:24:31;;;;;;;61.23;55.03;;;;;;;5.36;100.00;102303.25;4972598;28;20521;-51
2022/03/17 04:26:58;;;;;;;59.67;53.47;;;;;;;5.36;100.00;102298.81;4955276;28;20530;-45
2022/03/17 04:29:28;;;;;;;59.77;53.97;;;;;;;5.40;100.00;102294.97;4953589;28;20950;-47
2022/03/17 04:31:56;;;;;;;58.23;52.43;;;;;;;5.40;100.00;102287.03;4956033;28;20526;-48
2022/03/17 04:34:23;;;;;;;60.30;54.47;;;;;;;5.42;100.00;102285.09;4965214;28;20443;-48
2022/03/17 04:36:52;;;;;;;61.47;55.50;;;;;;;5.42;100.00;102279.78;4967177;28;20514;-46
2022/03/17 04:39:20;;;;;;;61.27;54.97;;;;;;;5.46;100.00;102286.53;4956860;28;20549;-47
2022/03/17 04:41:48;;;;;;;59.73;53.83;;;;;;;5.47;100.00;102274.97;4972032;28;20437;-47
2022/03/17 04:44:15;;;;;;;59.27;53.63;;;;;;;5.50;99.54;102273.88;4969247;28;20458;-47
2022/03/17 04:46:46;;;;;;;60.13;54.67;;;;;;;5.51;100.00;102275.56;4960820;28;20515;-46
2022/03/17 04:49:14;;;;;;;60.43;54.27;;;;;;;5.54;99.77;102270.00;4970953;28;20495;-51
2022/03/17 04:51:41;;;;;;;61.37;55.27;;;;;;;5.56;99.75;102268.06;4971885;28;20558;-48
2022/03/17 04:54:10;;;;;;;58.10;52.30;;;;;;;5.61;100.00;102273.00;4972250;28;20874;-46
2022/03/17 04:56:38;;;;;;;60.60;54.53;;;;;;;5.62;99.77;102269.34;4971067;28;20435;-49
2022/03/17 04:59:05;;;;;;;58.13;52.43;;;;;;;5.64;99.45;102265.66;4971152;28;20466;-51
2022/03/17 05:01:33;;;;;;;56.33;50.93;;;;;;;5.67;99.24;102248.66;4971381;28;20441;-47
2022/03/17 05:04:01;;;;;;;55.53;49.83;;;;;;;5.69;99.17;102268.75;4971566;28;20443;-45
2022/03/17 05:06:29;;;;;;;59.27;53.20;;;;;;;5.70;98.74;102256.34;4971861;28;20435;-45
2022/03/17 05:08:59;;;;;;;59.23;53.67;;;;;;;5.73;99.15;102264.03;4971227;28;20904;-45
2022/03/17 05:11:28;;;;;;;57.83;52.13;;;;;;;5.76;98.67;102266.44;4971574;28;20863;-48
2022/03/17 05:13:55;;;;;;;57.50;51.80;;;;;;;5.78;98.58;102261.84;4971658;28;20443;-46
2022/03/17 05:16:23;;;;;;;56.80;51.30;;;;;;;5.80;99.08;102258.09;4971486;28;20530;-46
2022/03/17 05:18:52;;;;;;;56.83;51.10;;;;;;;5.80;98.55;102260.72;4971317;28;20467;-48
2022/03/17 05:21:20;;;;;;;55.63;50.43;;;;;;;5.81;98.36;102266.88;4971512;28;20538;-48
2022/03/17 05:23:47;;;;;;;58.00;52.00;;;;;;;5.84;98.95;102264.81;4971626;28;20543;-44
2022/03/17 05:26:15;;;;;;;60.17;53.93;;;;;;;5.87;98.22;102269.88;4971359;28;20435;-47
2022/03/17 05:28:44;;;;;;;59.73;53.63;;;;;;;5.89;97.87;102269.72;4970933;28;20562;-48
2022/03/17 05:31:12;;;;;;;59.93;53.60;;;;;;;5.92;97.69;102265.03;4971079;28;20549;-50
2022/03/17 05:33:40;;;;;;;58.77;52.90;;;;;;;5.93;97.51;102257.94;4971572;28;20500;-52
2022/03/17 05:36:08;;;;;;;58.10;52.57;;;;;;;5.92;97.04;102248.28;4971384;28;20529;-47
2022/03/17 05:38:36;;;;;;;56.90;51.20;;;;;;;5.94;97.55;102257.78;4970868;28;20477;-48
2022/03/17 05:41:05;;;;;;;58.40;52.50;;;;;;;5.98;96.71;102277.75;4970941;28;20455;-49
2022/03/17 05:43:33;;;;;;;55.87;50.50;;;;;;;5.98;97.08;102274.25;4971066;28;20902;-46
2022/03/17 05:46:03;;;;;;;57.03;51.33;;;;;;;5.99;97.16;102257.41;4962362;28;20527;-49
2022/03/17 05:48:30;;;;;;;58.40;52.73;;;;;;;6.02;97.15;102255.34;4964476;28;20546;-46
2022/03/17 05:50:58;;;;;;;57.00;51.33;;;;;;;6.04;97.10;102247.25;4970849;28;20455;-48
2022/03/17 05:53:25;;;;;;;58.80;53.10;;;;;;;6.04;96.04;102255.19;4971229;28;20906;-49
2022/03/17 05:55:53;;;;;;;58.43;52.63;;;;;;;6.04;95.96;102250.75;4970944;28;20519;-48
2022/03/17 05:58:21;;;;;;;59.00;53.23;;;;;;;6.08;96.32;102235.44;4970513;28;20507;-46
2022/03/17 06:00:48;;;;;;;58.57;53.17;;;;;;;6.11;96.17;102236.03;4970565;28;20484;-49
2022/03/17 06:03:18;;;;;;;56.67;51.27;;;;;;;6.15;95.56;102231.31;4971110;28;20443;-48
2022/03/17 06:05:46;;;;;;;59.83;53.90;;;;;;;6.20;95.29;102241.50;4970954;28;20518;-46
2022/03/17 06:08:13;;;;;;;56.63;51.20;;;;;;;6.24;95.30;102245.56;4970301;28;20443;-51
2022/03/17 06:10:41;;;;;;;58.57;52.93;;;;;;;6.27;94.96;102243.50;4970099;28;20542;-50
2022/03/17 06:13:09;;;;;;;56.77;51.33;;;;;;;6.32;94.59;102243.94;4971088;28;20449;-50
2022/03/17 06:15:36;;;;;;;60.90;54.63;;;;;;;6.38;94.35;102237.25;4970855;28;20435;-48
2022/03/17 06:18:06;;;;;;;59.93;54.07;;;;;;;6.40;93.38;102227.34;4970105;28;21009;-51
2022/03/17 06:20:38;;;;;;;55.63;50.53;;;;;;;6.44;93.46;102234.91;4970403;28;20459;-47
2022/03/17 06:23:06;;;;;;;56.63;51.27;;;;;;;6.48;92.97;102236.31;4970625;28;20796;-46
2022/03/17 06:25:35;;;;;;;57.00;51.50;;;;;;;6.50;92.33;102236.19;4970597;28;20846;-52
2022/03/17 06:28:07;;;;;;;58.40;52.90;;;;;;;6.56;92.53;102228.56;4970231;28;20435;-51
2022/03/17 06:30:36;;;;;;;59.70;53.67;;;;;;;6.57;92.38;102229.41;4970336;28;20543;-49
2022/03/17 06:33:05;;;;;;;59.57;53.40;;;;;;;6.60;91.44;102215.88;4970582;28;20461;-45
2022/03/17 06:35:35;;;;;;;59.97;53.60;;;;;;;6.65;90.98;102226.91;4970384;28;20439;-49
2022/03/17 06:38:05;;;;;;;57.60;52.17;;;;;;;6.64;90.86;102228.72;4970165;28;20462;-48
2022/03/17 06:40:35;;;;;;;59.23;52.97;;;;;;;6.70;90.80;102222.03;4970141;28;20455;-50
2022/03/17 06:43:03;;;;;;;59.00;53.07;;;;;;;6.75;90.16;102230.41;4970441;28;20435;-46
2022/03/17 06:45:32;;;;;;;60.83;53.97;;;;;;;6.76;89.90;102233.91;4962688;28;20442;-48
2022/03/17 06:48:00;;;;;;;60.50;54.43;;;;;;;6.82;90.08;102236.00;4961609;28;21025;-46
2022/03/17 06:50:27;;;;;;;59.13;53.13;;;;;;;6.84;89.91;102218.97;4970281;28;20479;-48
2022/03/17 06:52:55;;;;;;;60.40;54.37;;;;;;;6.85;89.75;102228.63;4970520;28;20881;-48
2022/03/17 06:55:24;;;;;;;56.63;50.97;;;;;;;6.93;89.42;102233.25;4970476;28;20883;-49
2022/03/17 06:57:52;;;;;;;57.20;51.50;;;;;;;6.97;89.34;102224.88;4970058;28;20437;-47
2022/03/17 07:00:21;;;;;;;59.63;53.50;;;;;;;7.01;88.83;102228.09;4969260;28;20561;-47
2022/03/17 07:02:48;;;;;;;57.67;51.70;;;;;;;7.02;88.96;102219.16;4970051;28;20431;-45
2022/03/17 07:05:17;;;;;;;57.57;51.90;;;;;;;7.06;88.78;102224.06;4970397;28;20447;-47
2022/03/17 07:07:45;;;;;;;58.90;52.87;;;;;;;7.08;88.34;102214.13;4970152;28;20493;-50
2022/03/17 07:10:15;;;;;;;59.57;53.40;;;;;;;7.10;88.22;102227.28;4969245;28;20562;-48
2022/03/17 07:12:47;;;;;;;56.67;51.47;;;;;;;7.12;87.33;102230.63;4970184;28;20485;-47
2022/03/17 07:15:15;;;;;;;58.13;52.27;;;;;;;7.15;87.55;102225.88;4969832;28;20439;-48
2022/03/17 07:17:42;;;;;;;59.37;52.93;;;;;;;7.15;87.36;102231.19;4970029;28;21044;-48
2022/03/17 07:20:13;;;;;;;57.13;51.00;;;;;;;7.20;87.04;102222.81;4969352;28;20722;-46
2022/03/17 07:22:42;;;;;;;57.30;51.47;;;;;;;7.22;86.89;102234.13;4970160;28;20446;-48
2022/03/17 07:25:11;;;;;;;57.90;51.97;;;;;;;7.23;86.65;102225.19;4973341;28;20534;-47
2022/03/17 07:27:40;;;;;;;61.40;55.27;;;;;;;7.24;86.87;102216.25;4973083;28;20877;-49
2022/03/17 07:30:11;;;;;;;58.50;52.50;;;;;;;7.24;86.66;102216.25;4972511;28;20489;-49
2022/03/17 07:32:39;;;;;;;58.30;52.70;;;;;;;7.26;86.16;102218.78;4973098;28;20526;-46
2022/03/17 07:35:08;;;;;;;60.90;54.63;;;;;;;7.28;85.90;102230.94;4973282;28;20542;-46
2022/03/17 07:37:35;;;;;;;59.10;53.00;;;;;;;7.31;85.86;102222.69;4973103;28;20505;-51
2022/03/17 07:40:03;;;;;;;60.40;54.10;;;;;;;7.34;86.16;102240.16;4972444;28;20466;-47
2022/03/17 07:42:31;;;;;;;61.13;54.03;;;;;;;7.35;85.96;102239.19;4973092;28;20527;-47
2022/03/17 07:44:59;;;;;;;60.17;53.87;;;;;;;7.35;85.81;102239.19;4965594;28;20524;-48
2022/03/17 07:47:28;;;;;;;59.07;53.03;;;;;;;7.37;86.59;102237.22;4965124;28;20878;-49
2022/03/17 07:49:56;;;;;;;62.03;55.70;;;;;;;7.37;86.42;102239.88;4972361;28;20489;-49
2022/03/17 07:52:24;;;;;;;60.13;54.13;;;;;;;7.36;86.66;102228.41;4972743;28;20897;-49
2022/03/17 07:54:51;;;;;;;60.90;55.03;;;;;;;7.37;86.96;102243.38;4972727;28;20964;-47
2022/03/17 07:57:19;;;;;;;60.07;54.07;;;;;;;7.37;87.49;102256.63;4973011;28;20866;-50
2022/03/17 07:59:50;;;;;;;60.53;54.27;;;;;;;7.35;87.46;102244.47;4972252;28;20548;-48
2022/03/17 08:02:19;;;;;;;60.17;53.97;;;;;;;7.37;87.12;102242.53;4972828;28;20453;-47
2022/03/17 08:04:50;;;;;;;58.40;52.30;;;;;;;7.39;87.46;102240.56;4972718;28;20439;-48
2022/03/17 08:07:18;;;;;;;59.80;53.70;;;;;;;7.39;87.84;102245.84;4972523;28;20431;-50
2022/03/17 08:09:46;;;;;;;59.73;53.53;;;;;;;7.37;87.85;102238.06;4972126;28;20483;-50
2022/03/17 08:12:14;;;;;;;60.43;54.33;;;;;;;7.40;87.45;102240.44;4972538;28;20471;-52
2022/03/17 08:14:42;;;;;;;58.20;51.90;;;;;;;7.42;87.77;102237.63;4972520;28;20538;-52
2022/03/17 08:17:10;;;;;;;57.27;51.27;;;;;;;7.41;87.20;102254.50;4972470;28;20809;-47
2022/03/17 08:19:38;;;;;;;57.33;51.60;;;;;;;7.40;87.26;102250.19;4971758;28;20557;-46
2022/03/17 08:22:07;;;;;;;58.93;53.10;;;;;;;7.41;87.44;102255.34;4972436;28;20534;-49
2022/03/17 08:24:35;;;;;;;60.27;54.17;;;;;;;7.41;87.53;102257.16;4972343;28;20474;-50
2022/03/17 08:27:03;;;;;;;61.47;55.17;;;;;;;7.45;87.55;102269.19;4972382;28;20442;-48
2022/03/17 08:29:30;;;;;;;58.47;52.57;;;;;;;7.44;87.68;102278.13;4971606;28;20486;-46
2022/03/17 08:31:59;;;;;;;60.97;54.77;;;;;;;7.41;89.15;102259.81;4972179;28;20518;-44
2022/03/17 08:34:27;;;;;;;63.93;57.23;;;;;;;7.39;90.04;102272.41;4971304;28;20542;-50
2022/03/17 08:36:56;;;;;;;66.23;59.47;;;;;;;7.37;91.49;102274.38;4972336;28;20530;-48
2022/03/17 08:39:25;;;;;;;62.73;56.43;;;;;;;7.34;92.44;102274.63;4971758;28;20498;-48
2022/03/17 08:41:53;;;;;;;66.80;59.17;;;;;;;7.27;93.96;102273.50;4972014;28;20431;-48
2022/03/17 08:44:20;;;;;;;65.60;59.10;;;;;;;7.23;95.21;102268.47;4968750;28;20969;-46
2022/03/17 08:49:33;;;;;;;67.27;60.07;;;;;;;7.15;96.11;102270.97;4933194;28;20479;-47
2022/03/17 08:52:02;;;;;;;67.47;60.17;;;;;;;7.15;96.51;102278.09;4933514;29;20441;-51
2022/03/17 08:54:33;;;;;;;68.40;61.07;;;;;;;7.14;96.88;102281.72;4933637;29;20856;-49
2022/03/17 08:57:01;;;;;;;70.00;62.60;;;;;;;7.12;97.35;102278.38;4933511;28;20541;-46
2022/03/17 08:59:30;;;;;;;69.63;62.20;;;;;;;7.09;97.88;102278.66;4936603;28;20571;-49
2022/03/17 09:01:58;;;;;;;69.07;61.67;;;;;;;7.08;98.26;102275.16;4952500;29;20842;-48
2022/03/17 09:04:26;;;;;;;75.73;67.50;;;;;;;7.07;98.55;102288.56;4952456;29;20951;-49
2022/03/17 09:06:54;;;;;;;70.13;62.90;;;;;;;7.10;98.62;102290.94;4952591;29;20811;-48
2022/03/17 09:09:22;;;;;;;72.07;64.97;;;;;;;7.10;98.64;102283.00;4952067;28;20472;-48
2022/03/17 09:11:51;;;;;;;79.10;68.00;;;;;;;7.12;99.20;102281.88;4952047;29;20475;-46
2022/03/17 09:14:19;;;;;;;77.13;66.73;;;;;;;7.12;99.22;102284.53;4952724;29;20435;-50
2022/03/17 09:16:47;;;;;;;71.83;64.33;;;;;;;7.14;99.15;102287.88;4952506;29;20523;-48
2022/03/17 09:19:15;;;;;;;75.07;66.97;;;;;;;7.14;98.98;102302.94;4952112;28;20497;-49
2022/03/17 09:21:42;;;;;;;73.13;65.40;;;;;;;7.12;99.50;102308.41;4952090;28;20435;-52
2022/03/17 09:24:10;;;;;;;75.47;67.57;;;;;;;7.13;99.68;102304.78;4952257;29;20440;-48
2022/03/17 09:26:38;;;;;;;77.67;69.50;;;;;;;7.18;99.61;102310.50;4952165;29;20438;-50
2022/03/17 09:29:07;;;;;;;74.87;66.87;;;;;;;7.15;100.00;102315.25;4951861;28;20572;-45
2022/03/17 09:31:35;;;;;;;79.47;70.63;;;;;;;7.21;99.37;102320.84;4952048;29;20578;-47
2022/03/17 09:34:03;;;;;;;74.93;66.87;;;;;;;7.21;99.45;102328.81;4952112;29;20444;-47
2022/03/17 09:36:31;;;;;;;75.20;67.50;;;;;;;7.19;99.67;102322.81;4952302;29;20523;-46
2022/03/17 09:41:44;;;;;;;76.03;68.17;;;;;;;7.20;99.46;102335.06;4952096;28;20511;-44
2022/03/17 09:44:14;;;;;;;77.07;69.10;;;;;;;7.21;99.48;102336.75;4954233;28;20530;-48
2022/03/17 09:46:44;;;;;;;73.90;66.13;;;;;;;7.22;99.84;102330.50;4970825;28;20526;-47
2022/03/17 09:49:12;;;;;;;79.77;69.37;;;;;;;7.22;99.64;102345.56;4971038;28;20462;-45
2022/03/17 09:51:43;;;;;;;77.00;68.83;;;;;;;7.22;100.00;102354.38;4971165;28;20479;-46
2022/03/17 09:54:10;;;;;;;78.43;69.93;;;;;;;7.19;100.00;102349.34;4971001;28;20985;-47
2022/03/17 09:56:38;;;;;;;78.37;70.13;;;;;;;7.14;99.07;102354.19;4970936;28;20537;-52
2022/03/17 09:59:07;;;;;;;84.77;75.03;;;;;;;7.13;98.52;102349.88;4970555;28;20553;-48
2022/03/17 10:01:36;;;;;;;81.47;72.37;;;;;;;7.10;98.98;102347.50;4971087;28;20518;-47
2022/03/17 10:04:07;;;;;;;78.17;69.97;;;;;;;7.11;98.95;102361.56;4970925;28;20446;-51
2022/03/17 10:06:36;;;;;;;82.30;73.73;;;;;;;7.12;99.12;102358.81;4971168;28;20529;-51
2022/03/17 10:09:04;;;;;;;83.13;74.03;;;;;;;7.13;98.02;102375.56;4970331;28;21009;-47
2022/03/17 10:11:37;;;;;;;82.57;73.93;;;;;;;7.14;98.19;102375.41;4970622;28;20485;-45
2022/03/17 10:14:06;;;;;;;84.10;74.67;;;;;;;7.15;98.41;102377.09;4970733;28;20431;-47
2022/03/17 10:16:37;;;;;;;81.87;72.93;;;;;;;7.13;97.77;102378.22;4970685;28;21017;-47
2022/03/17 10:19:07;;;;;;;86.93;77.63;;;;;;;7.13;97.67;102388.81;4970264;28;21024;-50
2022/03/17 10:21:37;;;;;;;80.17;71.93;;;;;;;7.08;96.90;102378.59;4970690;28;20869;-49
2022/03/17 10:24:07;;;;;;;80.90;72.20;;;;;;;7.08;96.36;102385.72;4970715;28;20442;-50
2022/03/17 10:26:41;;;;;;;79.73;71.70;;;;;;;7.07;96.33;102392.84;4970690;28;20949;-51
2022/03/17 10:29:11;;;;;;;79.60;71.10;;;;;;;7.08;96.19;102391.03;4970103;28;20546;-51
2022/03/17 10:31:55;;;;;;;85.40;70.90;;;;;;;7.08;95.28;102399.81;4970522;28;20926;-49
2022/03/17 10:34:26;;;;;;;75.80;68.03;;;;;;;7.09;94.95;102401.50;4970857;28;20435;-49
2022/03/17 10:37:09;;;;;;;73.00;65.50;;;;;;;7.12;94.84;102405.72;4970615;28;20886;-52
2022/03/17 10:39:37;;;;;;;72.37;62.50;;;;;;;7.11;93.66;102411.97;4970220;28;20550;-53
2022/03/17 10:42:13;;;;;;;68.27;61.17;;;;;;;7.10;93.23;102415.63;4970344;28;20518;-51
2022/03/17 10:44:45;;;;;;;64.23;57.73;;;;;;;7.14;92.12;102424.97;4964547;28;20439;-51
2022/03/17 10:47:14;;;;;;;56.53;50.93;;;;;;;7.17;90.33;102430.88;4961845;28;20944;-45
2022/03/17 10:50:00;;;;;;;54.77;49.70;;;;;;;7.23;90.43;102440.09;4969689;28;20463;-49
2022/03/17 10:52:50;;;;;;;48.87;44.27;;;;;;;7.20;88.99;102446.50;4969765;28;20532;-47
2022/03/17 10:55:23;;;;;;;46.53;42.10;;;;;;;7.26;88.47;102462.91;4970020;28;20850;-46
2022/03/17 10:57:51;;;;;;;43.40;39.00;;;;;;;7.33;89.01;102464.03;4969219;28;20427;-46
2022/03/17 11:00:22;;;;;;;40.93;37.63;;;;;;;7.34;89.64;102468.38;4979653;23;20610;-41
2022/03/17 11:02:56;;;;;;;42.30;38.23;;;;;;;7.46;89.60;102464.66;4951116;28;20459;-42
2022/03/17 11:05:26;;;;;;;37.80;34.67;;;;;;;7.62;88.68;102463.16;4950905;29;20906;-40
2022/03/17 11:07:55;;;;;;;39.03;35.33;;;;;;;7.80;90.27;102471.28;4951021;29;20535;-45
2022/03/17 11:10:23;;;;;;;38.00;34.53;;;;;;;7.92;91.98;102480.81;5031162;28;20452;-44
2022/03/17 11:12:52;;;;;;;37.43;34.03;;;;;;;7.96;94.54;102487.56;5031418;28;20472;-43
2022/03/17 11:15:25;;;;;;;35.57;32.70;;;;;;;8.03;96.43;102486.03;5031611;28;20534;-43
2022/03/17 11:18:02;;;;;;;37.97;34.20;;;;;;;8.07;97.94;102492.75;5031387;28;20489;-42
2022/03/17 11:20:31;;;;;;;35.27;31.70;;;;;;;8.12;98.52;102495.00;4950380;28;20436;-41
2022/03/17 11:23:15;;;;;;;35.07;31.43;;;;;;;8.04;99.16;102500.13;4950839;29;20802;-42
2022/03/17 11:25:50;;;;;;;33.53;31.10;;;;;;;7.99;99.19;102503.22;4951276;29;20449;-45
2022/03/17 11:28:18;;;;;;;34.27;31.03;;;;;;;7.96;100.00;102508.81;4950505;28;20822;-42
2022/03/17 11:30:49;;;;;;;33.90;31.33;;;;;;;7.98;99.92;102500.69;4950445;28;20856;-42
2022/03/17 11:33:28;;;;;;;33.93;30.30;;;;;;;8.02;100.00;102510.91;4950539;28;20446;-43
2022/03/17 11:35:59;;;;;;;33.37;30.40;;;;;;;8.07;100.00;102516.66;4950878;29;20435;-44
2022/03/17 11:38:28;;;;;;;33.93;31.13;;;;;;;8.21;99.92;102515.44;4950316;28;20546;-42
2022/03/17 11:41:06;;;;;;;33.40;30.47;;;;;;;8.33;100.00;102522.34;4950289;29;20463;-42